EGPFLGKR

Guest
Details From EGPF - Glasgow
To LGKR - Ioannis Kapodistrias Intl
Flight Number -
Tags Generated
Created
Modified
Stats Distance 1,372 nm / 2,542 km
Max Altitude 0 ft / 0 m
Waypoints 8
Social Downloads 2
Likes 0
Share VATSIM

Download

Looking for another format? Having issues loading an existing format? Contact us
Advertisement - Login to hide

Notes

Generated

Route

EGPF OGDIN GIX29 DS725 PZ RILIM GAR02 LGKR

ID Type Via Altitude Latitude Longitude Leg Dist Tot Dist Heading (true) Name
O EGPF APT - 0 ft / 0 m 55.87222˚ -4.44472˚ - 0 nm - -
OGDIN FIX - 0 ft / 0 m 53.84694˚ 0.58083˚ 211 nm 211 nm 123° / 127° -
GIX29 FIX - 0 ft / 0 m 51.23809˚ 5.41472˚ 235 nm 447 nm 130° / 133° -
DS725 FIX - 0 ft / 0 m 48.71227˚ 9.34049˚ 214 nm 662 nm 133° / 137° -
PZ NDB - 0 ft / 0 m 45.47746˚ 13.61492˚ 261 nm 923 nm 136° / 140° PORTOROZ NDB
RILIM FIX - 0 ft / 0 m 42.65861˚ 16.81556˚ 218 nm 1142 nm 140° / 142° -
GAR02 FIX - 0 ft / 0 m 39.63925˚ 19.90187˚ 228 nm 1370 nm 141° / 143° -
O LGKR APT - 0 ft / 0 m 39.61228˚ 19.90921˚ 1 nm 1372 nm 168° / 168° -

Altitude Profile

Advertisement - Login to hide

Weather


0- 5 10 15 20 25 30 35+ Temperature / ° C

Clouds and Precipitation
Forecast for 2017-12-17 18:00 UTC. Updated 22 minutes ago

Ground ~20,000 ft ~40,000 ft Winds

EGPF

Details ICAO EGPF (GLA)
Name Glasgow
Region United Kingdom
Timezone Europe/London (UTC+0.0)
Stats Elevation 26 ft / 8 m (AMSL)
Location 55.871728° -4.433648°
Runways 1
Magnetic Variation 2.730° W

METAR

EGPF 171720Z AUTO 18009KT 9999 BKN031 06/03 Q1017

Decode

TAF

TAF AMD EGPF 171434Z 1714/1812 30014KT 9999 FEW025 TEMPO 1714/1716 30020G30KT BECMG 1716/1719 VRB05KT PROB30 1800/1809 4000 BR

Decode

Departure Runways

ID Width Length Bearing (true) Bearing (mag) Surface Threshold Offset Overrun Length
05 151 ft / 46 m 8,721 ft / 2,658 m 46.34° 49.07° Asphalt 0 ft / 0 m 499 ft / 152 m
23 151 ft / 46 m 8,721 ft / 2,658 m 226.37° 229.10° Asphalt 1,004 ft / 306 m 0 ft / 0 m

LGKR

Details ICAO LGKR (CFU)
Name IOANNIS KAPODISTRIAS INTL
Region Greece
Timezone Europe/Athens (UTC+2.0)
Stats Elevation 6 ft / 2 m (AMSL)
Location 39.601779° 19.911908°
Runways 1
Magnetic Variation 4.099° E

METAR

LGKR 171720Z 00000KT 9999 SCT025 09/08 Q1013 NOSIG

Decode

TAF

TAF LGKR 171100Z 1712/1812 33010KT 9999 SCT030 SCT080 PROB30 TEMPO 1712/1803 5000 RA SCT010 BKN025 BECMG 1713/1715 VRB05KT

Decode

Destination Runways

ID Width Length Bearing (true) Bearing (mag) Surface Threshold Offset Overrun Length
17 148 ft / 45 m 7,815 ft / 2,382 m 168.81° 164.71° Asphalt 1,348 ft / 411 m 0 ft / 0 m
35 148 ft / 45 m 7,815 ft / 2,382 m 348.81° 344.71° Asphalt 213 ft / 65 m 0 ft / 0 m

Popular Alternatives